Time;durP1;ratioP1;P1;durP2;ratioP2;P2;SDS_P1;SDS_P2;PMS_P1;PMS_P2;Temp;Humidity;BMP_temperature;BMP_pressure;BME280_temperature;BME280_humidity;BME280_pressure;Samples;Min_cycle;Max_cycle;Signal;HPM_P1;HPM_P2
2023/06/26 00:00:59;;;;;;;8.98;2.25;;;23.50;56.20;;;;;;5076516;28;20780;-82
2023/06/26 00:03:25;;;;;;;6.70;1.90;;;23.50;56.20;;;;;;5094490;28;20309;-83
2023/06/26 00:05:52;;;;;;;7.47;2.00;;;23.40;56.00;;;;;;5094276;28;20253;-82
2023/06/26 00:08:20;;;;;;;4.20;1.80;;;23.50;56.10;;;;;;5094561;28;20277;-83
2023/06/26 00:10:47;;;;;;;6.18;1.90;;;23.50;56.20;;;;;;5094727;28;20209;-82
2023/06/26 00:13:15;;;;;;;6.32;1.80;;;23.40;56.00;;;;;;5094411;28;20705;-83
2023/06/26 00:15:42;;;;;;;6.22;1.65;;;23.40;56.00;;;;;;5094285;28;20259;-80
2023/06/26 00:18:09;;;;;;;5.88;1.90;;;23.40;56.00;;;;;;5094438;28;20221;-81
2023/06/26 00:20:36;;;;;;;7.63;2.20;;;23.40;56.00;;;;;;5092300;28;20256;-82
2023/06/26 00:23:07;;;;;;;7.35;1.90;;;23.40;55.90;;;;;;5093559;28;20229;-83
2023/06/26 00:25:34;;;;;;;5.80;2.05;;;23.40;55.90;;;;;;5076547;28;20305;-83
2023/06/26 00:28:01;;;;;;;4.53;1.83;;;23.40;55.90;;;;;;5093982;28;20202;-82
2023/06/26 00:30:30;;;;;;;5.53;1.80;;;23.40;55.90;;;;;;5093706;28;20316;-82
2023/06/26 00:32:57;;;;;;;4.40;1.90;;;23.40;55.90;;;;;;5094032;28;20241;-82
2023/06/26 00:35:24;;;;;;;8.93;2.40;;;23.40;55.90;;;;;;5094056;28;20267;-83
2023/06/26 00:37:51;;;;;;;4.93;1.88;;;23.40;55.80;;;;;;5094014;28;20209;-82
2023/06/26 00:40:19;;;;;;;5.30;2.15;;;23.40;56.40;;;;;;5093629;28;20217;-82
2023/06/26 00:42:46;;;;;;;5.57;1.70;;;23.40;55.80;;;;;;5093799;28;20194;-83
2023/06/26 00:45:13;;;;;;;5.85;1.88;;;23.40;56.40;;;;;;5075171;28;20236;-83
2023/06/26 00:47:42;;;;;;;6.03;1.90;;;23.40;55.80;;;;;;5093757;28;20187;-82
2023/06/26 00:50:10;;;;;;;5.93;1.73;;;23.40;55.80;;;;;;5093588;28;20213;-82
2023/06/26 00:52:38;;;;;;;6.15;2.08;;;23.40;55.70;;;;;;5092704;28;20200;-83
2023/06/26 00:55:06;;;;;;;5.40;1.73;;;23.30;55.60;;;;;;5092894;28;20329;-83
2023/06/26 00:57:33;;;;;;;5.85;1.95;;;23.40;55.70;;;;;;5093808;28;20197;-81
2023/06/26 01:00:01;;;;;;;5.38;2.00;;;23.40;55.70;;;;;;5075368;28;20214;-81
2023/06/26 01:02:33;;;;;;;6.03;1.92;;;23.40;55.70;;;;;;5093535;28;20671;-82
2023/06/26 01:05:06;;;;;;;6.57;2.28;;;23.40;55.70;;;;;;5093160;28;20232;-83
2023/06/26 01:07:36;;;;;;;6.63;2.13;;;23.40;55.70;;;;;;5093382;28;20194;-82
2023/06/26 01:10:04;;;;;;;8.38;2.75;;;23.30;55.60;;;;;;5093154;28;20606;-81
2023/06/26 01:12:32;;;;;;;8.68;2.17;;;23.40;55.70;;;;;;5093344;28;20263;-83
2023/06/26 01:15:00;;;;;;;5.97;2.20;;;23.30;55.60;;;;;;5093247;28;20218;-82
2023/06/26 01:17:31;;;;;;;8.98;1.95;;;23.30;55.50;;;;;;5093219;28;20222;-83
2023/06/26 01:20:00;;;;;;;6.13;1.98;;;23.30;55.60;;;;;;5092086;28;20210;-82
2023/06/26 01:22:33;;;;;;;4.80;2.00;;;23.30;55.60;;;;;;5093352;28;20255;-83
2023/06/26 01:25:17;;;;;;;8.77;2.20;;;23.30;55.60;;;;;;5092906;28;20695;-83
2023/06/26 01:27:47;;;;;;;7.32;2.10;;;23.30;56.20;;;;;;5092860;28;20240;-83
2023/06/26 01:30:17;;;;;;;5.50;1.98;;;23.30;55.60;;;;;;5092644;28;20308;-82
2023/06/26 01:32:46;;;;;;;6.53;2.25;;;23.30;55.50;;;;;;5093032;28;20236;-83
2023/06/26 01:35:14;;;;;;;9.35;2.10;;;23.30;55.50;;;;;;5093279;28;20640;-83
2023/06/26 01:37:41;;;;;;;8.55;2.22;;;23.30;55.50;;;;;;5092837;28;20198;-82
2023/06/26 01:40:10;;;;;;;8.10;1.98;;;23.30;55.50;;;;;;5092285;28;20286;-82
2023/06/26 01:42:37;;;;;;;5.15;1.85;;;23.30;56.10;;;;;;5092814;28;20232;-83
2023/06/26 01:45:12;;;;;;;5.85;2.15;;;23.30;55.50;;;;;;5091036;28;20733;-82
2023/06/26 01:47:42;;;;;;;4.60;1.80;;;23.30;55.50;;;;;;5074796;28;20549;-82
2023/06/26 01:50:15;;;;;;;5.18;2.28;;;23.30;55.40;;;;;;5092483;28;20220;-82
2023/06/26 01:52:44;;;;;;;6.70;1.90;;;23.20;55.40;;;;;;5092623;28;20201;-83
2023/06/26 01:55:18;;;;;;;7.13;2.28;;;23.30;55.40;;;;;;5092427;28;20237;-83
2023/06/26 01:57:47;;;;;;;8.18;2.20;;;23.30;55.40;;;;;;5075165;28;20277;-83
2023/06/26 02:00:19;;;;;;;7.63;2.20;;;23.20;55.40;;;;;;5092223;28;20590;-82
2023/06/26 02:02:46;;;;;;;6.13;1.83;;;23.30;55.40;;;;;;5089958;28;20197;-83
2023/06/26 02:05:13;;;;;;;7.03;2.30;;;23.20;55.30;;;;;;5092359;28;20290;-82
2023/06/26 02:07:41;;;;;;;5.75;1.83;;;23.20;55.30;;;;;;5091470;28;20563;-83
2023/06/26 02:10:08;;;;;;;6.78;1.90;;;23.20;55.30;;;;;;5092359;28;20591;-81
2023/06/26 02:12:36;;;;;;;7.18;2.22;;;23.30;55.40;;;;;;5092593;28;20240;-83
2023/06/26 02:15:04;;;;;;;4.05;1.70;;;23.30;55.40;;;;;;5092219;28;20222;-81
2023/06/26 02:17:32;;;;;;;6.68;2.15;;;23.20;55.30;;;;;;5092022;28;20308;-82
2023/06/26 02:20:00;;;;;;;10.00;2.40;;;23.20;55.20;;;;;;5092230;28;20305;-82
2023/06/26 02:22:28;;;;;;;6.07;2.15;;;23.20;55.30;;;;;;5091018;28;20281;-83
2023/06/26 02:24:55;;;;;;;4.95;2.10;;;23.20;55.20;;;;;;5092506;28;20239;-83
2023/06/26 02:27:22;;;;;;;7.68;2.40;;;23.20;55.20;;;;;;5092625;28;20186;-82
2023/06/26 02:29:49;;;;;;;5.55;2.03;;;23.20;55.20;;;;;;5092146;28;20243;-83
2023/06/26 02:32:16;;;;;;;7.50;2.00;;;23.20;55.20;;;;;;5092147;28;20233;-83
2023/06/26 02:34:45;;;;;;;6.15;2.13;;;23.20;55.20;;;;;;5091827;28;20229;-81
2023/06/26 02:37:12;;;;;;;5.97;2.17;;;23.20;55.20;;;;;;5092010;28;20228;-83
2023/06/26 02:39:39;;;;;;;4.50;1.58;;;23.10;55.10;;;;;;5092629;28;20190;-82
2023/06/26 02:42:07;;;;;;;6.38;1.98;;;23.10;55.10;;;;;;5092145;28;20222;-82
2023/06/26 02:44:34;;;;;;;4.60;2.00;;;23.20;55.10;;;;;;5055297;28;20222;-82
2023/06/26 02:47:01;;;;;;;5.57;1.83;;;23.20;55.20;;;;;;5091800;28;20236;-82
2023/06/26 02:49:28;;;;;;;7.50;2.10;;;23.10;55.10;;;;;;5091897;28;20182;-83
2023/06/26 02:51:56;;;;;;;6.35;1.92;;;23.20;55.10;;;;;;5091920;28;20249;-83
2023/06/26 02:54:24;;;;;;;8.23;1.67;;;23.20;55.10;;;;;;5095529;28;20768;-83
2023/06/26 02:56:51;;;;;;;4.60;1.85;;;23.10;55.00;;;;;;5095781;28;20738;-81
2023/06/26 02:59:19;;;;;;;9.60;1.92;;;23.10;55.10;;;;;;5095614;28;20688;-83
2023/06/26 03:01:46;;;;;;;7.35;2.40;;;23.10;55.00;;;;;;5095580;28;20271;-83
2023/06/26 03:04:15;;;;;;;4.05;1.70;;;23.10;55.00;;;;;;5095606;28;20198;-83
2023/06/26 03:06:42;;;;;;;6.85;2.20;;;23.10;55.00;;;;;;5095798;28;20245;-83
2023/06/26 03:09:11;;;;;;;4.78;1.85;;;23.10;55.00;;;;;;5095600;28;20218;-82
2023/06/26 03:11:38;;;;;;;6.63;2.10;;;23.10;55.00;;;;;;5095600;28;20278;-83
2023/06/26 03:14:05;;;;;;;5.47;1.90;;;23.10;55.00;;;;;;5095403;28;20221;-82
2023/06/26 03:16:32;;;;;;;9.02;2.03;;;23.10;54.90;;;;;;5095532;28;20300;-79
2023/06/26 03:19:00;;;;;;;4.63;1.50;;;23.10;54.90;;;;;;5095401;28;20233;-78
2023/06/26 03:21:27;;;;;;;4.35;1.60;;;23.10;54.90;;;;;;5095044;28;20218;-78
2023/06/26 03:23:54;;;;;;;7.57;2.08;;;23.10;54.90;;;;;;5095454;28;20728;-82
2023/06/26 03:26:27;;;;;;;6.63;1.85;;;23.10;54.90;;;;;;5095250;28;20359;-83
2023/06/26 03:28:54;;;;;;;5.32;1.70;;;23.10;54.80;;;;;;5095508;28;20615;-83
2023/06/26 03:31:21;;;;;;;6.22;1.80;;;23.10;54.90;;;;;;5094975;28;20214;-76
2023/06/26 03:33:48;;;;;;;5.55;1.80;;;23.10;54.80;;;;;;5095652;28;20202;-83
2023/06/26 03:36:15;;;;;;;4.75;1.85;;;23.10;54.80;;;;;;5095458;28;20245;-83
2023/06/26 03:38:42;;;;;;;4.82;1.80;;;23.10;54.80;;;;;;5076603;28;20205;-78
2023/06/26 03:41:09;;;;;;;6.82;2.03;;;23.10;54.80;;;;;;5060384;28;20224;-83
2023/06/26 03:43:38;;;;;;;9.38;2.10;;;23.10;54.80;;;;;;5095182;28;20224;-77
2023/06/26 03:46:05;;;;;;;5.28;2.05;;;23.10;54.80;;;;;;5094820;28;20291;-83
2023/06/26 03:48:32;;;;;;;4.95;1.63;;;23.10;54.70;;;;;;5094826;28;20213;-81
2023/06/26 03:51:01;;;;;;;7.95;2.10;;;23.00;54.60;;;;;;5094413;28;20245;-78
2023/06/26 03:53:28;;;;;;;5.38;1.83;;;23.00;54.60;;;;;;5094515;28;20891;-82
2023/06/26 03:55:56;;;;;;;7.72;1.90;;;23.10;54.70;;;;;;5076825;28;20249;-82
2023/06/26 03:58:23;;;;;;;4.75;1.65;;;23.00;54.60;;;;;;5094384;28;20226;-83
2023/06/26 04:00:51;;;;;;;4.32;1.60;;;23.00;54.60;;;;;;5094818;28;20242;-83
2023/06/26 04:03:18;;;;;;;5.97;1.77;;;23.00;54.60;;;;;;5094158;28;20803;-83
2023/06/26 04:05:45;;;;;;;7.57;1.70;;;23.00;54.50;;;;;;5094272;28;20271;-82
2023/06/26 04:08:13;;;;;;;4.32;1.73;;;23.00;54.50;;;;;;5094440;28;20229;-78
2023/06/26 04:10:40;;;;;;;5.97;1.75;;;23.00;54.50;;;;;;5094314;28;20241;-77
2023/06/26 04:13:07;;;;;;;4.72;1.80;;;23.00;54.50;;;;;;5093363;28;20221;-82
2023/06/26 04:15:34;;;;;;;6.72;2.15;;;23.00;54.50;;;;;;5094001;28;20237;-82
2023/06/26 04:18:02;;;;;;;5.38;2.00;;;23.00;54.50;;;;;;5094045;28;20641;-78
2023/06/26 04:20:30;;;;;;;6.35;2.20;;;23.00;54.50;;;;;;5092917;28;20244;-82
2023/06/26 04:22:57;;;;;;;6.88;1.73;;;23.00;54.50;;;;;;5059566;28;20194;-82
2023/06/26 04:25:29;;;;;;;5.22;1.77;;;23.00;54.50;;;;;;5076145;28;20265;-74
2023/06/26 04:27:56;;;;;;;5.63;1.80;;;23.00;54.40;;;;;;5093733;28;20194;-82
2023/06/26 04:30:23;;;;;;;5.50;1.90;;;23.00;54.40;;;;;;5093744;28;20268;-76
2023/06/26 04:32:50;;;;;;;7.35;1.98;;;23.00;54.40;;;;;;5076268;28;20569;-82
2023/06/26 04:35:19;;;;;;;8.82;2.00;;;23.00;54.40;;;;;;5059278;28;20235;-82
2023/06/26 04:37:47;;;;;;;5.20;1.70;;;23.00;54.40;;;;;;5094523;28;20190;-82
2023/06/26 04:40:14;;;;;;;4.82;1.75;;;23.00;54.30;;;;;;5093618;28;20655;-82
2023/06/26 04:42:41;;;;;;;7.20;1.70;;;22.90;54.30;;;;;;5093759;28;20247;-82
2023/06/26 04:45:09;;;;;;;6.30;1.52;;;23.00;54.30;;;;;;5075517;28;20710;-81
2023/06/26 04:47:36;;;;;;;4.05;1.40;;;23.00;54.30;;;;;;5093389;28;20243;-76
2023/06/26 04:50:03;;;;;;;4.25;1.75;;;22.90;54.30;;;;;;5076184;28;20248;-78
2023/06/26 04:52:32;;;;;;;6.20;2.25;;;22.90;54.90;;;;;;5075960;28;20622;-81
2023/06/26 04:54:59;;;;;;;5.72;1.83;;;22.90;54.30;;;;;;5093545;28;20331;-78
2023/06/26 04:57:27;;;;;;;7.10;1.98;;;23.00;54.30;;;;;;5093532;28;20251;-83
2023/06/26 04:59:54;;;;;;;6.43;1.60;;;23.00;54.20;;;;;;5092063;28;20202;-82
2023/06/26 05:02:21;;;;;;;6.55;1.67;;;23.00;54.20;;;;;;5093486;28;20217;-81
2023/06/26 05:04:48;;;;;;;7.43;2.03;;;23.00;54.30;;;;;;5093330;28;20660;-81
2023/06/26 05:07:15;;;;;;;4.57;1.67;;;22.90;54.10;;;;;;5093252;28;20586;-81
2023/06/26 05:09:43;;;;;;;4.75;1.63;;;23.00;54.20;;;;;;5093233;28;20218;-82
2023/06/26 05:12:11;;;;;;;3.75;1.60;;;22.90;54.10;;;;;;5093273;28;20252;-81
2023/06/26 05:14:38;;;;;;;6.15;1.90;;;22.90;54.00;;;;;;5092835;28;20193;-82
2023/06/26 05:17:06;;;;;;;5.05;1.65;;;22.90;54.00;;;;;;5092452;28;20253;-82
2023/06/26 05:19:33;;;;;;;7.80;1.67;;;22.90;54.00;;;;;;5093143;28;20182;-82
2023/06/26 05:22:03;;;;;;;4.00;1.75;;;22.90;54.00;;;;;;5093023;28;20261;-82
2023/06/26 05:24:31;;;;;;;5.97;1.48;;;23.00;54.10;;;;;;5093091;28;20664;-82
2023/06/26 05:27:01;;;;;;;5.20;1.73;;;22.90;54.00;;;;;;5093003;28;20691;-81
2023/06/26 05:29:29;;;;;;;7.07;1.50;;;23.00;54.00;;;;;;5092774;28;20190;-82
2023/06/26 05:31:57;;;;;;;6.25;1.90;;;22.90;54.00;;;;;;5092859;28;20245;-83
2023/06/26 05:34:25;;;;;;;5.35;1.67;;;22.90;54.00;;;;;;5092977;28;20636;-82
2023/06/26 05:36:54;;;;;;;4.35;1.52;;;22.90;54.00;;;;;;5092889;28;20249;-80
2023/06/26 05:39:21;;;;;;;4.38;1.42;;;22.90;54.00;;;;;;5092742;28;20194;-82
2023/06/26 05:41:49;;;;;;;5.70;1.73;;;22.90;54.00;;;;;;5092805;28;20222;-82
2023/06/26 05:44:18;;;;;;;6.43;1.95;;;22.90;53.90;;;;;;5092705;28;20230;-81
2023/06/26 05:46:45;;;;;;;3.92;1.65;;;22.90;53.90;;;;;;5092335;28;20578;-82
2023/06/26 05:49:12;;;;;;;6.40;1.73;;;22.90;53.80;;;;;;5092405;28;20187;-81
2023/06/26 05:51:39;;;;;;;6.00;1.70;;;22.90;53.80;;;;;;5092804;28;20250;-81
2023/06/26 05:54:07;;;;;;;6.50;1.63;;;22.90;53.90;;;;;;5091967;28;20762;-81
2023/06/26 05:56:34;;;;;;;5.05;1.60;;;22.90;53.80;;;;;;5074600;28;20218;-80
2023/06/26 05:59:03;;;;;;;4.70;1.95;;;22.90;53.80;;;;;;5092591;28;20475;-82
2023/06/26 06:01:33;;;;;;;5.60;1.73;;;22.90;53.80;;;;;;5092451;28;20245;-81
2023/06/26 06:04:00;;;;;;;8.05;1.73;;;22.90;53.80;;;;;;5093086;28;20229;-78
2023/06/26 06:06:27;;;;;;;6.78;2.10;;;22.90;53.70;;;;;;5092244;28;20688;-82
2023/06/26 06:08:54;;;;;;;7.43;1.70;;;22.90;53.80;;;;;;5092678;28;20277;-81
2023/06/26 06:11:22;;;;;;;4.47;1.88;;;22.90;53.70;;;;;;5092522;28;20218;-82
2023/06/26 06:13:49;;;;;;;5.57;1.88;;;22.90;53.70;;;;;;5092347;28;20194;-81
2023/06/26 06:16:16;;;;;;;5.68;1.75;;;22.90;53.70;;;;;;5092276;28;20653;-77
2023/06/26 06:18:46;;;;;;;6.07;1.77;;;22.90;53.70;;;;;;5074267;28;20240;-75
2023/06/26 06:21:13;;;;;;;5.63;1.70;;;22.90;53.70;;;;;;5092237;28;20755;-82
2023/06/26 06:23:40;;;;;;;5.60;1.67;;;22.90;53.70;;;;;;5092417;28;20236;-82
2023/06/26 06:26:07;;;;;;;3.65;1.50;;;22.90;53.70;;;;;;5092250;28;20255;-82
2023/06/26 06:28:34;;;;;;;5.30;1.70;;;22.90;53.70;;;;;;5078342;28;20204;-82
2023/06/26 06:31:02;;;;;;;2.92;1.40;;;22.90;53.70;;;;;;5096479;28;20268;-82
2023/06/26 06:33:29;;;;;;;5.75;1.80;;;22.90;53.70;;;;;;5096905;28;20273;-82
2023/06/26 06:35:58;;;;;;;3.97;1.65;;;22.90;53.70;;;;;;5096187;28;20270;-80
2023/06/26 06:38:26;;;;;;;5.97;1.88;;;22.90;53.60;;;;;;5077752;28;20285;-77
2023/06/26 06:40:53;;;;;;;7.25;2.00;;;22.90;53.60;;;;;;5078220;28;20218;-81
2023/06/26 06:43:20;;;;;;;6.20;1.90;;;22.90;53.60;;;;;;5096141;28;20263;-83
2023/06/26 06:45:48;;;;;;;7.13;1.60;;;22.90;53.50;;;;;;5077950;28;20226;-82
2023/06/26 06:48:15;;;;;;;4.50;1.60;;;23.00;53.60;;;;;;5096131;28;20216;-83
2023/06/26 06:50:43;;;;;;;4.28;1.45;;;22.90;53.50;;;;;;5095637;28;20214;-82
2023/06/26 06:53:11;;;;;;;4.53;1.58;;;22.90;53.50;;;;;;5095548;28;20204;-82
2023/06/26 06:55:38;;;;;;;4.93;1.80;;;22.90;53.40;;;;;;5078073;28;20231;-82
2023/06/26 06:58:05;;;;;;;6.30;1.80;;;22.90;53.40;;;;;;5077911;28;20193;-80
2023/06/26 07:00:33;;;;;;;5.18;1.95;;;23.00;53.50;;;;;;5095825;28;20263;-82
2023/06/26 07:03:01;;;;;;;7.93;2.25;;;23.00;53.40;;;;;;5095904;28;20194;-80
2023/06/26 07:05:28;;;;;;;3.83;1.52;;;22.90;53.30;;;;;;5095489;28;20304;-80
2023/06/26 07:07:55;;;;;;;4.65;1.70;;;23.00;53.40;;;;;;5095679;28;20609;-82
2023/06/26 07:10:26;;;;;;;4.07;1.38;;;23.00;53.50;;;;;;5095466;28;20224;-79
2023/06/26 07:12:53;;;;;;;6.05;1.83;;;22.90;53.40;;;;;;5095959;28;20209;-82
2023/06/26 07:15:21;;;;;;;4.65;1.70;;;22.90;53.30;;;;;;5095470;28;20190;-81
2023/06/26 07:17:48;;;;;;;4.90;1.60;;;22.90;53.30;;;;;;5095244;28;20260;-81
2023/06/26 07:20:16;;;;;;;4.20;1.80;;;22.90;53.30;;;;;;5095354;28;20277;-82
2023/06/26 07:22:44;;;;;;;4.10;1.40;;;23.00;53.40;;;;;;5095896;28;20278;-83
2023/06/26 07:25:12;;;;;;;4.18;1.30;;;22.90;53.30;;;;;;5094940;28;20871;-82
2023/06/26 07:27:41;;;;;;;4.68;1.85;;;23.00;53.40;;;;;;5094818;28;20763;-82
2023/06/26 07:30:10;;;;;;;5.05;1.60;;;23.00;53.40;;;;;;5095196;28;20190;-82
2023/06/26 07:32:37;;;;;;;5.07;1.52;;;22.90;53.30;;;;;;5095190;28;20190;-82
2023/06/26 07:35:05;;;;;;;5.55;1.60;;;22.90;53.30;;;;;;5095219;28;20625;-82
2023/06/26 07:37:33;;;;;;;4.97;1.55;;;23.00;53.40;;;;;;5095062;28;20228;-83
2023/06/26 07:40:00;;;;;;;3.92;1.55;;;23.00;53.40;;;;;;5094086;28;20202;-83
2023/06/26 07:42:28;;;;;;;6.47;1.70;;;23.00;53.30;;;;;;5094651;28;20218;-82
2023/06/26 07:44:57;;;;;;;3.70;1.75;;;23.00;53.30;;;;;;5094710;28;20664;-80
2023/06/26 07:47:24;;;;;;;4.75;1.60;;;23.00;53.30;;;;;;5094454;28;20633;-83
2023/06/26 07:49:51;;;;;;;4.00;1.20;;;22.90;53.20;;;;;;5094865;28;20665;-82
2023/06/26 07:52:20;;;;;;;4.47;1.52;;;23.00;53.20;;;;;;5094802;28;20217;-82
2023/06/26 07:54:46;;;;;;;3.83;1.60;;;23.00;53.20;;;;;;5094546;28;20693;-82
2023/06/26 07:57:15;;;;;;;3.92;1.40;;;23.00;53.10;;;;;;5077014;28;20398;-82
2023/06/26 07:59:42;;;;;;;4.55;1.60;;;23.00;53.10;;;;;;5093040;28;20200;-82
2023/06/26 08:02:10;;;;;;;5.07;1.60;;;23.00;53.10;;;;;;5094680;28;20251;-82
2023/06/26 08:04:38;;;;;;;4.38;1.60;;;22.90;53.00;;;;;;5094446;28;20234;-83
2023/06/26 08:07:05;;;;;;;6.57;1.60;;;23.00;53.00;;;;;;5094366;28;20237;-81
2023/06/26 08:09:33;;;;;;;5.60;1.48;;;23.00;53.00;;;;;;5094490;28;20644;-82
2023/06/26 08:12:01;;;;;;;5.55;1.50;;;23.00;52.90;;;;;;5094299;28;20629;-82
2023/06/26 08:14:28;;;;;;;6.50;1.85;;;23.00;52.90;;;;;;5094281;28;20251;-82
2023/06/26 08:16:55;;;;;;;6.50;1.90;;;23.00;52.90;;;;;;5094123;28;20242;-82
2023/06/26 08:19:24;;;;;;;4.18;1.58;;;23.00;52.90;;;;;;5094328;28;20289;-81
2023/06/26 08:21:51;;;;;;;5.03;1.90;;;23.00;52.90;;;;;;5094476;28;20217;-82
2023/06/26 08:24:18;;;;;;;7.15;2.00;;;23.00;52.80;;;;;;5094274;28;20186;-82
2023/06/26 08:26:47;;;;;;;4.65;1.77;;;23.00;52.80;;;;;;5094354;28;20275;-82
2023/06/26 08:29:14;;;;;;;6.22;1.90;;;23.00;52.80;;;;;;5094289;28;20198;-82
2023/06/26 08:31:43;;;;;;;8.48;1.40;;;23.00;52.80;;;;;;5093932;28;20214;-82
2023/06/26 08:34:10;;;;;;;4.57;1.58;;;23.00;52.70;;;;;;5091262;28;20190;-82
2023/06/26 08:36:39;;;;;;;4.32;1.60;;;23.00;52.70;;;;;;5076050;28;20222;-82
2023/06/26 08:39:08;;;;;;;6.38;1.50;;;23.00;52.70;;;;;;5094242;28;20182;-81
2023/06/26 08:41:36;;;;;;;5.07;1.60;;;23.00;52.70;;;;;;5092516;28;20214;-81
2023/06/26 08:44:04;;;;;;;6.40;1.88;;;23.00;52.70;;;;;;5093931;28;20566;-82
2023/06/26 08:46:32;;;;;;;5.60;1.70;;;23.00;52.70;;;;;;5075842;28;20260;-82
2023/06/26 08:49:03;;;;;;;7.65;1.80;;;23.00;52.70;;;;;;5075919;28;20243;-82
2023/06/26 08:51:34;;;;;;;3.53;1.48;;;23.00;52.70;;;;;;5093606;28;20270;-82
2023/06/26 08:54:07;;;;;;;6.13;1.40;;;23.00;52.70;;;;;;5093515;28;20221;-77
2023/06/26 08:56:39;;;;;;;8.23;1.85;;;23.00;52.40;;;;;;5093691;28;20213;-78
2023/06/26 08:59:08;;;;;;;4.82;1.85;;;23.00;52.00;;;;;;5093348;28;20212;-77
2023/06/26 09:01:35;;;;;;;6.00;1.88;;;22.90;52.10;;;;;;5093580;28;20653;-75
2023/06/26 09:04:03;;;;;;;5.43;1.42;;;23.00;52.30;;;;;;5093450;28;20277;-77
2023/06/26 09:06:30;;;;;;;4.60;1.80;;;22.90;52.10;;;;;;5093459;28;20240;-77
2023/06/26 09:08:57;;;;;;;6.70;1.77;;;22.90;52.10;;;;;;5093256;28;20277;-78
2023/06/26 09:11:26;;;;;;;6.13;2.40;;;22.90;52.00;;;;;;5093429;28;20220;-77
2023/06/26 09:13:53;;;;;;;5.95;1.75;;;22.90;51.80;;;;;;5093297;28;20309;-77
2023/06/26 09:16:27;;;;;;;11.10;1.98;;;22.90;52.20;;;;;;5092828;28;20748;-74
2023/06/26 09:18:54;;;;;;;6.75;1.70;;;22.90;51.80;;;;;;5093246;28;20190;-77
2023/06/26 09:21:24;;;;;;;12.85;2.83;;;22.90;51.90;;;;;;5093173;28;20301;-75
2023/06/26 09:23:51;;;;;;;23.98;4.93;;;22.90;52.10;;;;;;5093119;28;20186;-77
2023/06/26 09:26:18;;;;;;;9.05;2.33;;;22.90;52.10;;;;;;5093024;28;20226;-76
2023/06/26 09:28:49;;;;;;;7.15;2.28;;;22.80;51.40;;;;;;5092909;28;20273;-76
2023/06/26 09:31:20;;;;;;;8.35;2.20;;;22.80;50.80;;;;;;5092645;28;20239;-78
2023/06/26 09:33:50;;;;;;;15.05;2.47;;;22.80;51.90;;;;;;5092961;28;20281;-81
2023/06/26 09:36:21;;;;;;;9.68;2.75;;;22.90;52.10;;;;;;5093285;28;20217;-80
2023/06/26 09:38:48;;;;;;;5.18;2.08;;;22.90;52.60;;;;;;5092378;28;20581;-80
2023/06/26 09:41:18;;;;;;;6.13;2.10;;;22.90;52.80;;;;;;5092717;28;20272;-80
2023/06/26 09:43:50;;;;;;;5.32;1.85;;;22.90;53.00;;;;;;5092707;28;20190;-80
2023/06/26 09:46:18;;;;;;;7.80;1.90;;;23.00;53.10;;;;;;5074801;28;20683;-79
2023/06/26 09:48:45;;;;;;;4.78;2.22;;;23.00;53.10;;;;;;5092976;28;20186;-80
2023/06/26 09:51:13;;;;;;;6.75;2.10;;;22.90;53.10;;;;;;5092727;28;20267;-79
2023/06/26 09:53:42;;;;;;;4.18;1.70;;;23.00;53.30;;;;;;5070581;28;20296;-80
2023/06/26 09:56:17;;;;;;;5.90;1.65;;;22.90;53.30;;;;;;5072333;28;20320;-80
2023/06/26 09:58:45;;;;;;;5.32;1.60;;;23.00;53.40;;;;;;5071957;28;20571;-79
2023/06/26 10:01:15;;;;;;;6.30;2.05;;;23.00;53.40;;;;;;5070570;28;20227;-79
2023/06/26 10:03:42;;;;;;;5.20;1.58;;;23.00;53.40;;;;;;5072449;28;20187;-76
2023/06/26 10:06:12;;;;;;;8.13;2.03;;;23.00;53.40;;;;;;5072133;28;20250;-78
2023/06/26 10:08:40;;;;;;;3.55;1.75;;;23.00;53.40;;;;;;5071955;28;20697;-79
2023/06/26 10:11:11;;;;;;;7.90;2.10;;;23.00;53.30;;;;;;5072034;28;20305;-76
2023/06/26 10:13:43;;;;;;;4.43;1.80;;;23.00;53.20;;;;;;5072271;28;20275;-79
2023/06/26 10:16:12;;;;;;;5.53;1.75;;;23.00;53.20;;;;;;5072190;28;20222;-79
2023/06/26 10:18:42;;;;;;;6.38;1.75;;;23.00;53.10;;;;;;5072246;28;20217;-80
2023/06/26 10:21:11;;;;;;;6.10;1.88;;;23.00;53.10;;;;;;5070767;28;20305;-80
2023/06/26 10:23:40;;;;;;;5.43;1.70;;;23.00;52.90;;;;;;5072661;28;20244;-80
2023/06/26 10:26:09;;;;;;;6.50;1.73;;;23.00;52.90;;;;;;5072110;28;20306;-80
2023/06/26 10:28:38;;;;;;;6.95;2.00;;;23.00;53.50;;;;;;5071589;28;20313;-80
2023/06/26 10:31:07;;;;;;;3.92;1.45;;;23.00;52.80;;;;;;5072544;28;20747;-81
2023/06/26 10:33:35;;;;;;;4.68;2.00;;;23.00;52.70;;;;;;5072141;28;20194;-79
2023/06/26 10:36:18;;;;;;;2.65;1.40;;;23.00;52.60;;;;;;5070883;28;20258;-80
2023/06/26 10:38:53;;;;;;;5.07;1.80;;;23.00;52.60;;;;;;5072174;28;20206;-80
2023/06/26 10:41:23;;;;;;;7.47;1.98;;;23.00;52.50;;;;;;5072384;28;20214;-74
2023/06/26 10:43:52;;;;;;;5.45;1.63;;;23.00;52.40;;;;;;5071887;28;20191;-80
2023/06/26 10:46:23;;;;;;;4.40;1.70;;;23.00;52.40;;;;;;5071893;28;20221;-80
2023/06/26 10:49:00;;;;;;;6.82;2.00;;;23.00;52.40;;;;;;5071692;28;20236;-80
2023/06/26 10:51:29;;;;;;;6.25;1.90;;;23.00;52.30;;;;;;5071919;28;20218;-79
2023/06/26 10:53:57;;;;;;;5.10;1.58;;;23.00;52.30;;;;;;5070147;28;20226;-79
2023/06/26 10:56:43;;;;;;;4.60;1.60;;;23.00;52.20;;;;;;5071822;28;20300;-79
2023/06/26 10:59:18;;;;;;;5.07;1.77;;;23.00;52.10;;;;;;5071530;28;20567;-80
2023/06/26 11:01:46;;;;;;;5.28;1.80;;;23.00;52.10;;;;;;5071649;28;20791;-79
2023/06/26 11:04:16;;;;;;;5.07;1.83;;;23.00;52.10;;;;;;5071898;28;20668;-80
2023/06/26 11:07:18;;;;;;;3.95;1.70;;;23.00;52.00;;;;;;5070413;28;20689;-80
2023/06/26 11:10:00;;;;;;;4.88;1.98;;;23.00;52.00;;;;;;5072275;28;20198;-78
2023/06/26 11:12:38;;;;;;;6.32;1.95;;;23.00;52.00;;;;;;5072111;28;20245;-79
2023/06/26 11:15:08;;;;;;;5.28;1.67;;;23.00;51.90;;;;;;5074274;28;20813;-80
2023/06/26 11:17:36;;;;;;;4.00;1.60;;;23.00;51.80;;;;;;5075287;28;20306;-76
2023/06/26 11:20:04;;;;;;;5.80;1.75;;;23.00;51.80;;;;;;5074939;28;20274;-80
2023/06/26 11:22:36;;;;;;;7.22;1.70;;;23.00;51.80;;;;;;5075592;28;20222;-76
2023/06/26 11:25:06;;;;;;;2.97;1.27;;;23.00;51.80;;;;;;5075031;28;20576;-80
2023/06/26 11:27:39;;;;;;;4.60;1.60;;;23.00;51.80;;;;;;5074948;28;20693;-80
2023/06/26 11:30:07;;;;;;;4.00;1.88;;;23.00;51.80;;;;;;5071738;28;20579;-76
2023/06/26 11:32:34;;;;;;;4.55;1.70;;;23.00;51.80;;;;;;5075511;28;20219;-80
2023/06/26 11:35:04;;;;;;;5.60;1.63;;;23.00;51.80;;;;;;5075393;28;20644;-80
2023/06/26 11:37:33;;;;;;;3.15;1.58;;;23.00;51.70;;;;;;5073732;28;20295;-80
2023/06/26 11:40:00;;;;;;;3.97;1.60;;;23.00;51.60;;;;;;5075004;28;20226;-79
2023/06/26 11:42:29;;;;;;;3.22;1.50;;;23.00;51.60;;;;;;5074824;28;20711;-80
2023/06/26 11:44:56;;;;;;;4.20;1.70;;;23.00;51.60;;;;;;5074748;28;20673;-78
2023/06/26 11:47:23;;;;;;;5.82;2.15;;;23.00;51.70;;;;;;5074597;28;20230;-79
2023/06/26 11:49:51;;;;;;;3.67;1.80;;;23.00;51.60;;;;;;5074932;28;20279;-80
2023/06/26 11:52:18;;;;;;;5.00;1.60;;;23.00;51.60;;;;;;5073606;28;20214;-80
2023/06/26 11:54:47;;;;;;;3.67;1.70;;;23.00;52.20;;;;;;5073269;28;20265;-78
2023/06/26 11:57:17;;;;;;;5.15;1.85;;;23.00;51.60;;;;;;5073613;28;20214;-80
2023/06/26 11:59:44;;;;;;;5.95;2.13;;;23.00;51.60;;;;;;5074585;28;20201;-80
2023/06/26 12:02:14;;;;;;;7.07;2.00;;;23.00;51.60;;;;;;5074852;28;20218;-80
2023/06/26 12:04:43;;;;;;;3.88;1.95;;;23.00;51.60;;;;;;5074415;28;20641;-80
2023/06/26 12:07:11;;;;;;;4.20;1.60;;;23.00;51.50;;;;;;5074322;28;20237;-80
2023/06/26 12:09:43;;;;;;;4.20;1.75;;;23.00;51.60;;;;;;5074465;28;20568;-79
2023/06/26 12:12:14;;;;;;;4.80;1.60;;;23.00;51.60;;;;;;5074440;28;20226;-80
2023/06/26 12:14:41;;;;;;;4.85;1.85;;;23.00;51.50;;;;;;5074107;28;20190;-80
2023/06/26 12:17:11;;;;;;;2.95;1.50;;;23.00;51.50;;;;;;5074064;28;20385;-79
2023/06/26 12:19:40;;;;;;;4.72;1.75;;;23.00;51.40;;;;;;5073006;28;20191;-80
2023/06/26 12:22:10;;;;;;;3.78;1.60;;;23.00;51.40;;;;;;5072577;28;20254;-80
2023/06/26 12:24:39;;;;;;;4.40;1.65;;;23.00;51.40;;;;;;5073757;28;20637;-80
2023/06/26 12:27:11;;;;;;;3.08;1.77;;;23.00;51.40;;;;;;5074231;28;20218;-79
2023/06/26 12:29:40;;;;;;;5.20;1.60;;;23.00;51.40;;;;;;5074082;28;20284;-80
2023/06/26 12:32:10;;;;;;;4.60;1.80;;;23.00;51.30;;;;;;5073936;28;20218;-76
2023/06/26 12:34:38;;;;;;;5.75;1.85;;;23.00;51.40;;;;;;5073783;28;20191;-80
2023/06/26 12:37:07;;;;;;;4.57;1.90;;;23.00;51.40;;;;;;5073641;28;20245;-80
2023/06/26 12:39:47;;;;;;;7.00;2.17;;;23.00;51.30;;;;;;5073522;28;20297;-80
2023/06/26 12:42:17;;;;;;;3.90;1.55;;;23.00;51.30;;;;;;5073882;28;20218;-80
2023/06/26 12:44:44;;;;;;;4.57;1.60;;;23.00;51.30;;;;;;5073471;28;20213;-81
2023/06/26 12:47:13;;;;;;;4.47;1.63;;;23.00;51.30;;;;;;5072316;28;20223;-80
2023/06/26 12:49:41;;;;;;;4.85;1.63;;;23.00;51.30;;;;;;5074009;28;20278;-80
2023/06/26 12:52:09;;;;;;;4.85;1.95;;;23.00;51.20;;;;;;5073435;28;20271;-80